sensor_id;sensor_type;location;lat;lon;timestamp;pressure;altitude;pressure_sealevel;temperature;humidity
57628;BME280;43451;49.060;10.616;2023-04-21T00:00:54;96322.28;;;6.67;100.00
57628;BME280;43451;49.060;10.616;2023-04-21T00:03:19;96319.94;;;6.69;100.00
57628;BME280;43451;49.060;10.616;2023-04-21T00:05:46;96331.06;;;6.57;100.00
57628;BME280;43451;49.060;10.616;2023-04-21T00:08:12;96328.38;;;6.57;100.00
57628;BME280;43451;49.060;10.616;2023-04-21T00:10:38;96323.75;;;6.61;100.00
57628;BME280;43451;49.060;10.616;2023-04-21T00:13:03;96321.09;;;6.68;100.00
57628;BME280;43451;49.060;10.616;2023-04-21T00:15:29;96320.34;;;6.71;100.00
57628;BME280;43451;49.060;10.616;2023-04-21T00:17:54;96326.06;;;6.59;100.00
57628;BME280;43451;49.060;10.616;2023-04-21T00:20:20;96328.88;;;6.73;100.00
57628;BME280;43451;49.060;10.616;2023-04-21T00:22:45;96319.16;;;6.65;100.00
57628;BME280;43451;49.060;10.616;2023-04-21T00:25:11;96325.34;;;6.69;100.00
57628;BME280;43451;49.060;10.616;2023-04-21T00:27:37;96323.38;;;6.62;100.00
57628;BME280;43451;49.060;10.616;2023-04-21T00:30:02;96324.09;;;6.56;100.00
57628;BME280;43451;49.060;10.616;2023-04-21T00:32:27;96324.97;;;6.67;100.00
57628;BME280;43451;49.060;10.616;2023-04-21T00:34:53;96323.06;;;6.71;100.00
57628;BME280;43451;49.060;10.616;2023-04-21T00:37:19;96326.16;;;6.73;100.00
57628;BME280;43451;49.060;10.616;2023-04-21T00:39:44;96326.91;;;6.70;100.00
57628;BME280;43451;49.060;10.616;2023-04-21T00:42:10;96328.03;;;6.65;100.00
57628;BME280;43451;49.060;10.616;2023-04-21T00:44:35;96339.97;;;6.64;100.00
57628;BME280;43451;49.060;10.616;2023-04-21T00:47:00;96345.69;;;6.56;100.00
57628;BME280;43451;49.060;10.616;2023-04-21T00:49:26;96351.84;;;6.53;100.00
57628;BME280;43451;49.060;10.616;2023-04-21T00:51:52;96354.56;;;6.12;100.00
57628;BME280;43451;49.060;10.616;2023-04-21T00:54:17;96345.75;;;6.18;100.00
57628;BME280;43451;49.060;10.616;2023-04-21T00:56:43;96354.34;;;6.31;100.00
57628;BME280;43451;49.060;10.616;2023-04-21T00:59:09;96364.75;;;6.29;100.00
57628;BME280;43451;49.060;10.616;2023-04-21T01:01:34;96365.03;;;6.17;100.00
57628;BME280;43451;49.060;10.616;2023-04-21T01:04:00;96359.09;;;6.00;100.00
57628;BME280;43451;49.060;10.616;2023-04-21T01:08:59;96361.97;;;5.85;100.00
57628;BME280;43451;49.060;10.616;2023-04-21T01:11:25;96373.47;;;5.78;100.00
57628;BME280;43451;49.060;10.616;2023-04-21T01:13:51;96375.44;;;5.81;100.00
57628;BME280;43451;49.060;10.616;2023-04-21T01:16:17;96379.00;;;5.92;100.00
57628;BME280;43451;49.060;10.616;2023-04-21T01:18:43;96377.38;;;5.84;100.00
57628;BME280;43451;49.060;10.616;2023-04-21T01:21:08;96370.28;;;5.69;100.00
57628;BME280;43451;49.060;10.616;2023-04-21T01:23:35;96378.56;;;5.53;100.00
57628;BME280;43451;49.060;10.616;2023-04-21T01:26:00;96377.69;;;5.45;100.00
57628;BME280;43451;49.060;10.616;2023-04-21T01:28:26;96380.06;;;5.50;100.00
57628;BME280;43451;49.060;10.616;2023-04-21T01:30:51;96379.03;;;5.58;100.00
57628;BME280;43451;49.060;10.616;2023-04-21T01:33:17;96376.31;;;5.58;100.00
57628;BME280;43451;49.060;10.616;2023-04-21T01:35:43;96380.88;;;5.54;100.00
57628;BME280;43451;49.060;10.616;2023-04-21T01:38:08;96368.81;;;5.45;100.00
57628;BME280;43451;49.060;10.616;2023-04-21T01:40:33;96370.44;;;5.49;100.00
57628;BME280;43451;49.060;10.616;2023-04-21T01:42:59;96377.78;;;5.52;100.00
57628;BME280;43451;49.060;10.616;2023-04-21T01:45:24;96386.22;;;5.51;100.00
57628;BME280;43451;49.060;10.616;2023-04-21T01:47:50;96375.88;;;5.53;100.00
57628;BME280;43451;49.060;10.616;2023-04-21T01:50:15;96377.78;;;5.52;100.00
57628;BME280;43451;49.060;10.616;2023-04-21T01:52:40;96366.97;;;5.49;100.00
57628;BME280;43451;49.060;10.616;2023-04-21T01:55:06;96365.06;;;5.49;100.00
57628;BME280;43451;49.060;10.616;2023-04-21T01:57:31;96360.47;;;5.53;100.00
57628;BME280;43451;49.060;10.616;2023-04-21T01:59:57;96370.59;;;5.30;100.00
57628;BME280;43451;49.060;10.616;2023-04-21T02:02:22;96367.72;;;5.19;100.00
57628;BME280;43451;49.060;10.616;2023-04-21T02:04:47;96360.03;;;5.18;100.00
57628;BME280;43451;49.060;10.616;2023-04-21T02:07:13;96359.25;;;5.17;100.00
57628;BME280;43451;49.060;10.616;2023-04-21T02:09:38;96361.28;;;5.24;100.00
57628;BME280;43451;49.060;10.616;2023-04-21T02:12:03;96355.03;;;5.20;100.00
57628;BME280;43451;49.060;10.616;2023-04-21T02:14:29;96361.16;;;5.17;100.00
57628;BME280;43451;49.060;10.616;2023-04-21T02:16:54;96360.00;;;5.14;100.00
57628;BME280;43451;49.060;10.616;2023-04-21T02:19:20;96368.78;;;5.11;100.00
57628;BME280;43451;49.060;10.616;2023-04-21T02:21:45;96360.44;;;5.20;100.00
57628;BME280;43451;49.060;10.616;2023-04-21T02:24:10;96359.25;;;5.17;100.00
57628;BME280;43451;49.060;10.616;2023-04-21T02:26:36;96353.41;;;5.11;100.00
57628;BME280;43451;49.060;10.616;2023-04-21T02:29:01;96354.88;;;5.05;100.00
57628;BME280;43451;49.060;10.616;2023-04-21T02:31:26;96364.69;;;5.21;100.00
57628;BME280;43451;49.060;10.616;2023-04-21T02:33:52;96353.59;;;5.26;100.00
57628;BME280;43451;49.060;10.616;2023-04-21T02:36:18;96349.16;;;5.41;100.00
57628;BME280;43451;49.060;10.616;2023-04-21T02:38:44;96354.03;;;5.31;100.00
57628;BME280;43451;49.060;10.616;2023-04-21T02:41:09;96348.97;;;5.26;100.00
57628;BME280;43451;49.060;10.616;2023-04-21T02:43:35;96352.22;;;5.09;100.00
57628;BME280;43451;49.060;10.616;2023-04-21T02:46:04;96344.88;;;5.06;100.00
57628;BME280;43451;49.060;10.616;2023-04-21T02:48:29;96343.91;;;5.21;100.00
57628;BME280;43451;49.060;10.616;2023-04-21T02:50:54;96328.75;;;5.09;100.00
57628;BME280;43451;49.060;10.616;2023-04-21T02:53:20;96332.22;;;5.10;100.00
57628;BME280;43451;49.060;10.616;2023-04-21T02:55:45;96347.09;;;5.00;100.00
57628;BME280;43451;49.060;10.616;2023-04-21T02:58:11;96336.38;;;5.04;100.00
57628;BME280;43451;49.060;10.616;2023-04-21T03:00:36;96330.53;;;5.28;100.00
57628;BME280;43451;49.060;10.616;2023-04-21T03:03:02;96341.97;;;5.18;100.00
57628;BME280;43451;49.060;10.616;2023-04-21T03:05:27;96347.22;;;5.07;100.00
57628;BME280;43451;49.060;10.616;2023-04-21T03:07:52;96344.88;;;5.06;100.00
57628;BME280;43451;49.060;10.616;2023-04-21T03:10:18;96348.75;;;5.08;100.00
57628;BME280;43451;49.060;10.616;2023-04-21T03:12:43;96348.41;;;5.13;100.00
57628;BME280;43451;49.060;10.616;2023-04-21T03:15:09;96337.38;;;5.22;100.00
57628;BME280;43451;49.060;10.616;2023-04-21T03:17:35;96333.63;;;5.27;100.00
57628;BME280;43451;49.060;10.616;2023-04-21T03:20:00;96331.91;;;5.15;100.00
57628;BME280;43451;49.060;10.616;2023-04-21T03:22:29;96332.59;;;5.08;100.00
57628;BME280;43451;49.060;10.616;2023-04-21T03:24:54;96329.03;;;5.31;100.00
57628;BME280;43451;49.060;10.616;2023-04-21T03:27:19;96324.97;;;5.44;100.00
57628;BME280;43451;49.060;10.616;2023-04-21T03:29:45;96308.28;;;5.35;100.00
57628;BME280;43451;49.060;10.616;2023-04-21T03:32:10;96303.50;;;5.18;100.00
57628;BME280;43451;49.060;10.616;2023-04-21T03:34:35;96299.03;;;5.32;100.00
57628;BME280;43451;49.060;10.616;2023-04-21T03:37:00;96289.44;;;5.35;100.00
57628;BME280;43451;49.060;10.616;2023-04-21T03:39:26;96281.97;;;5.21;100.00
57628;BME280;43451;49.060;10.616;2023-04-21T03:41:51;96278.41;;;5.13;100.00
57628;BME280;43451;49.060;10.616;2023-04-21T03:44:16;96284.53;;;5.10;100.00
57628;BME280;43451;49.060;10.616;2023-04-21T03:46:42;96299.41;;;5.01;100.00
57628;BME280;43451;49.060;10.616;2023-04-21T03:49:07;96307.13;;;5.02;100.00
57628;BME280;43451;49.060;10.616;2023-04-21T03:51:32;96309.53;;;5.07;100.00
57628;BME280;43451;49.060;10.616;2023-04-21T03:53:58;96304.19;;;5.11;100.00
57628;BME280;43451;49.060;10.616;2023-04-21T03:56:23;96305.53;;;5.28;100.00
57628;BME280;43451;49.060;10.616;2023-04-21T03:58:49;96308.53;;;5.23;100.00
57628;BME280;43451;49.060;10.616;2023-04-21T04:01:14;96324.31;;;5.21;100.00
57628;BME280;43451;49.060;10.616;2023-04-21T04:03:40;96317.16;;;5.35;100.00
57628;BME280;43451;49.060;10.616;2023-04-21T04:06:05;96321.31;;;5.29;100.00
57628;BME280;43451;49.060;10.616;2023-04-21T04:08:31;96310.41;;;5.19;100.00
57628;BME280;43451;49.060;10.616;2023-04-21T04:10:56;96311.59;;;5.21;100.00
57628;BME280;43451;49.060;10.616;2023-04-21T04:13:21;96308.88;;;5.18;100.00
57628;BME280;43451;49.060;10.616;2023-04-21T04:15:48;96320.41;;;5.18;100.00
57628;BME280;43451;49.060;10.616;2023-04-21T04:18:13;96326.56;;;5.19;100.00
57628;BME280;43451;49.060;10.616;2023-04-21T04:20:39;96328.06;;;5.16;100.00
57628;BME280;43451;49.060;10.616;2023-04-21T04:23:04;96328.81;;;5.13;100.00
57628;BME280;43451;49.060;10.616;2023-04-21T04:25:29;96324.09;;;5.06;100.00
57628;BME280;43451;49.060;10.616;2023-04-21T04:27:55;96325.22;;;5.02;100.00
57628;BME280;43451;49.060;10.616;2023-04-21T04:30:21;96336.31;;;5.00;100.00
57628;BME280;43451;49.060;10.616;2023-04-21T04:32:48;96345.84;;;4.94;100.00
57628;BME280;43451;49.060;10.616;2023-04-21T04:35:13;96347.38;;;4.92;100.00
57628;BME280;43451;49.060;10.616;2023-04-21T04:37:39;96351.25;;;4.94;100.00
57628;BME280;43451;49.060;10.616;2023-04-21T04:40:05;96353.94;;;4.94;100.00
57628;BME280;43451;49.060;10.616;2023-04-21T04:42:31;96356.28;;;4.96;100.00
57628;BME280;43451;49.060;10.616;2023-04-21T04:45:00;96355.91;;;4.97;100.00
57628;BME280;43451;49.060;10.616;2023-04-21T04:47:26;96351.72;;;5.00;100.00
57628;BME280;43451;49.060;10.616;2023-04-21T04:49:52;96351.75;;;5.03;100.00
57628;BME280;43451;49.060;10.616;2023-04-21T04:52:18;96344.81;;;5.02;100.00
57628;BME280;43451;49.060;10.616;2023-04-21T04:54:43;96356.44;;;5.10;100.00
57628;BME280;43451;49.060;10.616;2023-04-21T04:57:08;96343.47;;;5.16;100.00
57628;BME280;43451;49.060;10.616;2023-04-21T04:59:34;96343.19;;;5.24;100.00
57628;BME280;43451;49.060;10.616;2023-04-21T05:02:00;96347.00;;;5.53;100.00
57628;BME280;43451;49.060;10.616;2023-04-21T05:04:25;96343.72;;;5.37;100.00
57628;BME280;43451;49.060;10.616;2023-04-21T05:06:51;96360.16;;;5.28;100.00
57628;BME280;43451;49.060;10.616;2023-04-21T05:09:16;96364.41;;;5.29;100.00
57628;BME280;43451;49.060;10.616;2023-04-21T05:11:41;96362.16;;;5.35;100.00
57628;BME280;43451;49.060;10.616;2023-04-21T05:14:07;96366.25;;;5.52;100.00
57628;BME280;43451;49.060;10.616;2023-04-21T05:16:32;96368.81;;;5.45;100.00
57628;BME280;43451;49.060;10.616;2023-04-21T05:19:01;96360.66;;;5.38;100.00
57628;BME280;43451;49.060;10.616;2023-04-21T05:21:27;96371.47;;;5.41;100.00
57628;BME280;43451;49.060;10.616;2023-04-21T05:23:53;96377.69;;;5.45;100.00
57628;BME280;43451;49.060;10.616;2023-04-21T05:26:18;96382.06;;;5.57;100.00
57628;BME280;43451;49.060;10.616;2023-04-21T05:28:43;96377.13;;;5.63;100.00
57628;BME280;43451;49.060;10.616;2023-04-21T05:31:09;96379.09;;;5.66;100.00
57628;BME280;43451;49.060;10.616;2023-04-21T05:33:34;96373.28;;;5.64;100.00
57628;BME280;43451;49.060;10.616;2023-04-21T05:35:59;96374.47;;;5.66;100.00
57628;BME280;43451;49.060;10.616;2023-04-21T05:38:25;96364.44;;;5.63;100.00
57628;BME280;43451;49.060;10.616;2023-04-21T05:40:52;96374.94;;;5.72;100.00
57628;BME280;43451;49.060;10.616;2023-04-21T05:43:18;96375.72;;;5.72;100.00
57628;BME280;43451;49.060;10.616;2023-04-21T05:45:43;96366.50;;;5.77;100.00
57628;BME280;43451;49.060;10.616;2023-04-21T05:48:08;96377.69;;;5.79;100.00
57628;BME280;43451;49.060;10.616;2023-04-21T05:50:33;96380.44;;;5.82;100.00
57628;BME280;43451;49.060;10.616;2023-04-21T05:52:59;96382.78;;;5.84;100.00
57628;BME280;43451;49.060;10.616;2023-04-21T05:55:25;96381.59;;;5.81;100.00
57628;BME280;43451;49.060;10.616;2023-04-21T05:57:51;96395.06;;;5.81;100.00
57628;BME280;43451;49.060;10.616;2023-04-21T06:00:16;96393.91;;;5.82;100.00
57628;BME280;43451;49.060;10.616;2023-04-21T06:02:41;96397.78;;;5.85;100.00
57628;BME280;43451;49.060;10.616;2023-04-21T06:05:07;96394.41;;;5.92;100.00
57628;BME280;43451;49.060;10.616;2023-04-21T06:07:32;96385.06;;;5.82;100.00
57628;BME280;43451;49.060;10.616;2023-04-21T06:10:01;96392.34;;;5.78;100.00
57628;BME280;43451;49.060;10.616;2023-04-21T06:12:26;96385.06;;;5.82;100.00
57628;BME280;43451;49.060;10.616;2023-04-21T06:14:51;96389.66;;;5.81;100.00
57628;BME280;43451;49.060;10.616;2023-04-21T06:17:21;96388.25;;;5.91;100.00
57628;BME280;43451;49.060;10.616;2023-04-21T06:19:46;96400.78;;;6.10;100.00
57628;BME280;43451;49.060;10.616;2023-04-21T06:22:17;96386.72;;;6.31;100.00
57628;BME280;43451;49.060;10.616;2023-04-21T06:24:42;96393.47;;;6.51;100.00
57628;BME280;43451;49.060;10.616;2023-04-21T06:27:10;96378.94;;;6.63;100.00
57628;BME280;43451;49.060;10.616;2023-04-21T06:29:39;96385.03;;;6.57;100.00
57628;BME280;43451;49.060;10.616;2023-04-21T06:32:04;96389.38;;;6.72;100.00
57628;BME280;43451;49.060;10.616;2023-04-21T06:34:30;96392.41;;;6.60;100.00
57628;BME280;43451;49.060;10.616;2023-04-21T06:36:55;96378.91;;;6.60;100.00
57628;BME280;43451;49.060;10.616;2023-04-21T06:39:21;96376.22;;;6.60;100.00
57628;BME280;43451;49.060;10.616;2023-04-21T06:41:46;96380.53;;;6.75;100.00
57628;BME280;43451;49.060;10.616;2023-04-21T06:44:11;96375.13;;;6.75;100.00
57628;BME280;43451;49.060;10.616;2023-04-21T06:46:40;96386.78;;;6.83;100.00
57628;BME280;43451;49.060;10.616;2023-04-21T06:49:08;96379.94;;;6.96;100.00
57628;BME280;43451;49.060;10.616;2023-04-21T06:51:34;96373.00;;;6.95;100.00
57628;BME280;43451;49.060;10.616;2023-04-21T06:53:59;96377.72;;;7.16;100.00
57628;BME280;43451;49.060;10.616;2023-04-21T06:56:25;96372.63;;;7.04;100.00
57628;BME280;43451;49.060;10.616;2023-04-21T06:58:51;96368.06;;;7.08;100.00
57628;BME280;43451;49.060;10.616;2023-04-21T07:01:16;96365.78;;;7.17;100.00
57628;BME280;43451;49.060;10.616;2023-04-21T07:03:41;96366.94;;;7.19;100.00
57628;BME280;43451;49.060;10.616;2023-04-21T07:06:07;96362.34;;;7.20;100.00
57628;BME280;43451;49.060;10.616;2023-04-21T07:11:00;96350.81;;;7.30;100.00
57628;BME280;43451;49.060;10.616;2023-04-21T07:13:25;96355.44;;;7.33;100.00
57628;BME280;43451;49.060;10.616;2023-04-21T07:15:50;96355.47;;;7.40;100.00
57628;BME280;43451;49.060;10.616;2023-04-21T07:18:16;96354.31;;;7.41;100.00
57628;BME280;43451;49.060;10.616;2023-04-21T07:20:41;96358.22;;;7.55;100.00
57628;BME280;43451;49.060;10.616;2023-04-21T07:23:06;96357.09;;;7.59;100.00
57628;BME280;43451;49.060;10.616;2023-04-21T07:25:32;96356.75;;;7.68;100.00
57628;BME280;43451;49.060;10.616;2023-04-21T07:27:57;96355.19;;;7.71;100.00
57628;BME280;43451;49.060;10.616;2023-04-21T07:30:23;96362.97;;;7.83;100.00
57628;BME280;43451;49.060;10.616;2023-04-21T07:32:48;96358.38;;;7.98;100.00
57628;BME280;43451;49.060;10.616;2023-04-21T07:35:13;96363.44;;;8.17;100.00
57628;BME280;43451;49.060;10.616;2023-04-21T07:37:39;96368.84;;;8.10;100.00
57628;BME280;43451;49.060;10.616;2023-04-21T07:40:05;96357.97;;;7.92;100.00
57628;BME280;43451;49.060;10.616;2023-04-21T07:42:30;96361.84;;;8.02;100.00
57628;BME280;43451;49.060;10.616;2023-04-21T07:44:56;96363.03;;;8.01;100.00
57628;BME280;43451;49.060;10.616;2023-04-21T07:47:21;96364.97;;;8.04;100.00
57628;BME280;43451;49.060;10.616;2023-04-21T07:49:47;96358.03;;;8.24;100.00
57628;BME280;43451;49.060;10.616;2023-04-21T07:52:12;96356.13;;;8.35;100.00
57628;BME280;43451;49.060;10.616;2023-04-21T07:54:37;96358.09;;;8.49;100.00
57628;BME280;43451;49.060;10.616;2023-04-21T07:57:03;96348.03;;;8.57;100.00
57628;BME280;43451;49.060;10.616;2023-04-21T07:59:28;96350.72;;;8.78;100.00
57628;BME280;43451;49.060;10.616;2023-04-21T08:01:53;96349.97;;;8.89;100.00
57628;BME280;43451;49.060;10.616;2023-04-21T08:04:19;96346.47;;;8.95;100.00
57628;BME280;43451;49.060;10.616;2023-04-21T08:06:44;96342.09;;;9.34;100.00
57628;BME280;43451;49.060;10.616;2023-04-21T08:09:09;96350.69;;;9.14;100.00
57628;BME280;43451;49.060;10.616;2023-04-21T08:11:35;96347.22;;;9.14;100.00
57628;BME280;43451;49.060;10.616;2023-04-21T08:14:00;96341.78;;;9.14;100.00
57628;BME280;43451;49.060;10.616;2023-04-21T08:16:26;96342.56;;;9.14;100.00
57628;BME280;43451;49.060;10.616;2023-04-21T08:18:51;96348.72;;;9.18;100.00
57628;BME280;43451;49.060;10.616;2023-04-21T08:21:16;96338.63;;;9.37;100.00
57628;BME280;43451;49.060;10.616;2023-04-21T08:23:42;96340.22;;;9.23;100.00
57628;BME280;43451;49.060;10.616;2023-04-21T08:26:08;96339.75;;;9.43;100.00
57628;BME280;43451;49.060;10.616;2023-04-21T08:28:33;96328.50;;;9.48;100.00
57628;BME280;43451;49.060;10.616;2023-04-21T08:30:59;96327.72;;;9.51;100.00
57628;BME280;43451;49.060;10.616;2023-04-21T08:33:24;96333.94;;;9.51;100.00
57628;BME280;43451;49.060;10.616;2023-04-21T08:35:50;96334.56;;;9.81;100.00
57628;BME280;43451;49.060;10.616;2023-04-21T08:38:17;96334.53;;;9.84;100.00
57628;BME280;43451;49.060;10.616;2023-04-21T08:40:42;96335.69;;;9.87;100.00
57628;BME280;43451;49.060;10.616;2023-04-21T08:43:08;96343.09;;;9.75;100.00
57628;BME280;43451;49.060;10.616;2023-04-21T08:45:34;96348.00;;;10.02;100.00
57628;BME280;43451;49.060;10.616;2023-04-21T08:48:00;96343.28;;;10.13;100.00
57628;BME280;43451;49.060;10.616;2023-04-21T08:50:26;96354.03;;;10.35;100.00
57628;BME280;43451;49.060;10.616;2023-04-21T08:52:52;96341.28;;;10.21;100.00
57628;BME280;43451;49.060;10.616;2023-04-21T08:55:18;96334.81;;;10.63;100.00
57628;BME280;43451;49.060;10.616;2023-04-21T08:57:44;96335.53;;;10.67;100.00
57628;BME280;43451;49.060;10.616;2023-04-21T09:00:10;96337.00;;;10.79;100.00
57628;BME280;43451;49.060;10.616;2023-04-21T09:02:51;96326.66;;;11.05;100.00
57628;BME280;43451;49.060;10.616;2023-04-21T09:05:20;96316.94;;;11.42;100.00
57628;BME280;43451;49.060;10.616;2023-04-21T09:07:46;96312.59;;;11.48;100.00
57628;BME280;43451;49.060;10.616;2023-04-21T09:10:11;96316.00;;;11.55;100.00
57628;BME280;43451;49.060;10.616;2023-04-21T09:12:37;96323.47;;;11.78;100.00
57628;BME280;43451;49.060;10.616;2023-04-21T09:15:04;96316.97;;;12.03;100.00
57628;BME280;43451;49.060;10.616;2023-04-21T09:17:30;96324.56;;;12.15;100.00
57628;BME280;43451;49.060;10.616;2023-04-21T09:22:41;96322.34;;;12.34;100.00
57628;BME280;43451;49.060;10.616;2023-04-21T09:25:07;96322.38;;;12.57;100.00
57628;BME280;43451;49.060;10.616;2023-04-21T09:27:36;96320.78;;;12.60;100.00
57628;BME280;43451;49.060;10.616;2023-04-21T09:30:05;96321.88;;;12.62;100.00
57628;BME280;43451;49.060;10.616;2023-04-21T09:32:39;96314.59;;;12.55;100.00
57628;BME280;43451;49.060;10.616;2023-04-21T09:35:08;96320.06;;;12.55;100.00
57628;BME280;43451;49.060;10.616;2023-04-21T09:37:34;96321.84;;;12.66;100.00
57628;BME280;43451;49.060;10.616;2023-04-21T09:39:59;96325.16;;;12.77;100.00
57628;BME280;43451;49.060;10.616;2023-04-21T09:42:28;96327.53;;;12.75;100.00
57628;BME280;43451;49.060;10.616;2023-04-21T09:44:54;96320.22;;;12.68;100.00
57628;BME280;43451;49.060;10.616;2023-04-21T09:47:20;96315.09;;;12.74;100.00
57628;BME280;43451;49.060;10.616;2023-04-21T09:49:50;96318.03;;;12.83;100.00
57628;BME280;43451;49.060;10.616;2023-04-21T09:52:18;96327.06;;;13.04;100.00
57628;BME280;43451;49.060;10.616;2023-04-21T09:54:47;96319.34;;;12.98;100.00
57628;BME280;43451;49.060;10.616;2023-04-21T09:57:13;96323.66;;;12.96;100.00
57628;BME280;43451;49.060;10.616;2023-04-21T09:59:44;96324.03;;;12.98;100.00
57628;BME280;43451;49.060;10.616;2023-04-21T10:02:10;96327.47;;;13.22;98.55
57628;BME280;43451;49.060;10.616;2023-04-21T10:04:35;96319.28;;;13.22;94.67
57628;BME280;43451;49.060;10.616;2023-04-21T10:07:01;96315.16;;;13.14;96.35
57628;BME280;43451;49.060;10.616;2023-04-21T10:09:32;96310.03;;;13.39;99.98
57628;BME280;43451;49.060;10.616;2023-04-21T10:12:00;96295.75;;;13.32;94.15
57628;BME280;43451;49.060;10.616;2023-04-21T10:14:26;96312.81;;;13.56;94.83
57628;BME280;43451;49.060;10.616;2023-04-21T10:16:55;96308.25;;;13.69;93.56
57628;BME280;43451;49.060;10.616;2023-04-21T10:19:22;96305.19;;;14.03;94.56
57628;BME280;43451;49.060;10.616;2023-04-21T10:21:48;96307.00;;;14.10;97.86
57628;BME280;43451;49.060;10.616;2023-04-21T10:24:14;96303.22;;;14.04;89.31
57628;BME280;43451;49.060;10.616;2023-04-21T10:26:40;96306.31;;;14.06;89.01
57628;BME280;43451;49.060;10.616;2023-04-21T10:29:05;96312.28;;;14.01;92.87
57628;BME280;43451;49.060;10.616;2023-04-21T10:36:31;96294.84;;;13.94;91.82
57628;BME280;43451;49.060;10.616;2023-04-21T10:39:02;96299.28;;;14.05;90.47
57628;BME280;43451;49.060;10.616;2023-04-21T10:41:28;96289.84;;;14.09;90.55
57628;BME280;43451;49.060;10.616;2023-04-21T10:43:57;96291.81;;;14.25;88.06
57628;BME280;43451;49.060;10.616;2023-04-21T10:46:30;96293.88;;;14.21;90.11
57628;BME280;43451;49.060;10.616;2023-04-21T10:49:02;96285.41;;;14.32;85.67
57628;BME280;43451;49.060;10.616;2023-04-21T10:51:29;96286.94;;;14.33;82.44
57628;BME280;43451;49.060;10.616;2023-04-21T10:53:56;96284.03;;;14.24;88.91
57628;BME280;43451;49.060;10.616;2023-04-21T10:56:21;96275.25;;;14.16;85.65
57628;BME280;43451;49.060;10.616;2023-04-21T10:58:48;96270.47;;;14.20;90.09
57628;BME280;43451;49.060;10.616;2023-04-21T11:01:13;96276.63;;;14.40;91.24
57628;BME280;43451;49.060;10.616;2023-04-21T11:03:39;96269.97;;;14.42;90.24
57628;BME280;43451;49.060;10.616;2023-04-21T11:06:14;96260.00;;;14.51;86.73
57628;BME280;43451;49.060;10.616;2023-04-21T11:08:56;96257.28;;;14.80;81.67
57628;BME280;43451;49.060;10.616;2023-04-21T11:11:21;96258.50;;;15.08;83.70
57628;BME280;43451;49.060;10.616;2023-04-21T11:13:48;96256.53;;;15.09;80.35
57628;BME280;43451;49.060;10.616;2023-04-21T11:16:13;96250.69;;;15.23;81.46
57628;BME280;43451;49.060;10.616;2023-04-21T11:21:07;96255.25;;;15.14;82.82
57628;BME280;43451;49.060;10.616;2023-04-21T11:23:33;96252.38;;;15.04;78.84
57628;BME280;43451;49.060;10.616;2023-04-21T11:25:59;96248.06;;;14.91;81.89
57628;BME280;43451;49.060;10.616;2023-04-21T11:28:24;96249.03;;;15.13;77.93
57628;BME280;43451;49.060;10.616;2023-04-21T11:30:49;96247.09;;;15.26;78.70
57628;BME280;43451;49.060;10.616;2023-04-21T11:33:15;96233.06;;;15.24;74.98
57628;BME280;43451;49.060;10.616;2023-04-21T11:35:40;96238.66;;;15.33;74.42
57628;BME280;43451;49.060;10.616;2023-04-21T11:38:06;96235.31;;;15.55;76.11
57628;BME280;43451;49.060;10.616;2023-04-21T11:40:43;96236.66;;;15.76;76.99
57628;BME280;43451;49.060;10.616;2023-04-21T11:43:08;96231.97;;;16.02;72.33
57628;BME280;43451;49.060;10.616;2023-04-21T11:45:34;96237.78;;;16.04;67.30
57628;BME280;43451;49.060;10.616;2023-04-21T11:48:15;96228.44;;;16.01;67.59
57628;BME280;43451;49.060;10.616;2023-04-21T11:50:43;96223.28;;;16.16;68.76
57628;BME280;43451;49.060;10.616;2023-04-21T11:53:10;96228.34;;;16.31;64.35
57628;BME280;43451;49.060;10.616;2023-04-21T11:55:40;96217.44;;;16.53;68.29
57628;BME280;43451;49.060;10.616;2023-04-21T11:58:06;96227.34;;;16.85;65.86
57628;BME280;43451;49.060;10.616;2023-04-21T12:00:31;96215.22;;;16.95;71.18
57628;BME280;43451;49.060;10.616;2023-04-21T12:02:56;96226.06;;;17.21;67.63
57628;BME280;43451;49.060;10.616;2023-04-21T12:05:22;96214.53;;;17.57;66.87
57628;BME280;43451;49.060;10.616;2023-04-21T12:07:48;96210.00;;;17.32;58.61
57628;BME280;43451;49.060;10.616;2023-04-21T12:10:16;96217.59;;;17.59;69.54
57628;BME280;43451;49.060;10.616;2023-04-21T12:12:43;96218.06;;;17.57;58.16
57628;BME280;43451;49.060;10.616;2023-04-21T12:15:09;96219.13;;;17.60;60.61
57628;BME280;43451;49.060;10.616;2023-04-21T12:17:44;96213.94;;;17.84;60.68
57628;BME280;43451;49.060;10.616;2023-04-21T12:20:10;96205.81;;;17.49;57.82
57628;BME280;43451;49.060;10.616;2023-04-21T12:22:36;96218.81;;;17.80;66.70
57628;BME280;43451;49.060;10.616;2023-04-21T12:25:01;96211.38;;;17.90;57.75
57628;BME280;43451;49.060;10.616;2023-04-21T12:27:27;96208.50;;;17.71;55.21
57628;BME280;43451;49.060;10.616;2023-04-21T12:29:52;96207.31;;;17.50;54.10
57628;BME280;43451;49.060;10.616;2023-04-21T12:32:18;96208.69;;;17.46;54.66
57628;BME280;43451;49.060;10.616;2023-04-21T12:34:44;96212.88;;;17.59;56.56
57628;BME280;43451;49.060;10.616;2023-04-21T12:37:09;96210.84;;;17.51;56.00
57628;BME280;43451;49.060;10.616;2023-04-21T12:39:35;96201.50;;;17.70;57.25
57628;BME280;43451;49.060;10.616;2023-04-21T12:42:00;96205.97;;;17.77;55.47
57628;BME280;43451;49.060;10.616;2023-04-21T12:44:26;96209.00;;;17.79;54.16
57628;BME280;43451;49.060;10.616;2023-04-21T12:46:51;96200.66;;;17.92;58.37
57628;BME280;43451;49.060;10.616;2023-04-21T12:49:17;96205.00;;;18.02;52.74
57628;BME280;43451;49.060;10.616;2023-04-21T12:51:43;96192.63;;;18.06;53.19
57628;BME280;43451;49.060;10.616;2023-04-21T12:54:09;96197.19;;;18.00;51.14
57628;BME280;43451;49.060;10.616;2023-04-21T12:56:34;96195.97;;;17.92;51.36
57628;BME280;43451;49.060;10.616;2023-04-21T12:59:00;96193.84;;;18.05;54.74